Drachten Airfield

EHDR · Provincie Fryslân, Nederland

3 oktober 2022

Tijd Code Weer Temp. Zicht Plafond Wind METAR/SPECI
02:20
L
9 °C 0 m - Var Var 3 kt METAR ETWM 030020Z AUTO VRB03KT //// // ////// 09/08 Q1023 ///
01:20
L
9 °C 0 m - Var Var 3 kt METAR ETWM 022320Z AUTO VRB03KT //// // ////// 09/09 Q1023 ///
00:20
L
9 °C 0 m - Var Var 3 kt METAR ETWM 022220Z AUTO VRB03KT //// // ////// 09/09 Q1022 ///

2 oktober 2022

Tijd Code Weer Temp. Zicht Plafond Wind METAR/SPECI
23:20
L
9 °C 0 m - Var Var 3 kt METAR ETWM 022120Z AUTO VRB03KT //// // ////// 09/09 Q1022 ///
22:20
L
10 °C 0 m - 250° 250° 2 kt METAR ETWM 022020Z AUTO 25002KT //// // ////// 10/09 Q1021 ///
21:20
L
11 °C 0 m - Var Var 2 kt METAR ETWM 021920Z AUTO VRB02KT //// // ////// 11/09 Q1021 ///
20:20
L
13 °C 0 m - 280° 280° 3 kt METAR ETWM 021820Z AUTO 28003KT //// // ////// 13/09 Q1020 ///
19:20
L
14 °C 0 m - 280° 280° 4 kt METAR ETWM 021720Z AUTO 28004KT //// // ////// 14/09 Q1019 ///
18:20
L
15 °C 0 m - 280° 280° 6 kt METAR ETWM 021620Z AUTO 28006KT //// // ////// 15/09 Q1018 ///
17:20
L
17 °C 0 m - 300° 300° 6 kt METAR ETWM 021520Z AUTO 30006KT //// // ////// 17/09 Q1017 ///
16:20
L
17 °C 0 m - 280° 280° 9 - 19 kt METAR ETWM 021420Z AUTO 28009G19KT //// // ////// 17/09 Q1017 ///
15:20
L
16 °C 0 m - 280° 280° 7 - 17 kt METAR ETWM 021320Z AUTO 28007G17KT //// // ////// 16/10 Q1016 ///
14:20
L
15 °C 0 m - 280° 280° 5 kt METAR ETWM 021220Z AUTO 28005KT //// // ////// 15/12 Q1016 ///
13:20
L
14 °C 0 m - 300° 300° 3 kt METAR ETWM 021120Z AUTO 30003KT //// // ////// 14/12 Q1016 ///
12:20
L
16 °C 0 m - 290° 290° 8 kt METAR ETWM 021020Z AUTO 29008KT //// // ////// 16/10 Q1015 ///
11:20
L
16 °C 0 m - 260° 260° 8 kt METAR ETWM 020920Z AUTO 26008KT //// // ////// 16/11 Q1015 ///
10:20
L
15 °C 0 m - 250° 250° 4 kt METAR ETWM 020820Z AUTO 25004KT //// // ////// 15/11 Q1014 ///
09:20
L
13 °C 0 m - 220° 220° 5 kt METAR ETWM 020720Z AUTO 22005KT //// // ////// 13/11 Q1013 ///
08:20
L
11 °C 0 m - 230° 230° 4 kt METAR ETWM 020620Z AUTO 23004KT //// // ////// 11/10 Q1013 ///
07:20
L
11 °C 0 m - 220° 220° 5 kt METAR ETWM 020520Z AUTO 22005KT //// // ////// 11/10 Q1012 ///
06:20
L
11 °C 0 m - 210° 210° 5 kt METAR ETWM 020420Z AUTO 21005KT //// // ////// 11/10 Q1012 ///
05:20
L
12 °C 0 m - 220° 220° 5 kt METAR ETWM 020320Z AUTO 22005KT //// // ////// 12/10 Q1012 ///
04:20
L
12 °C 0 m - 220° 220° 5 kt METAR ETWM 020220Z AUTO 22005KT //// // ////// 12/11 Q1012 ///
03:20
L
11 °C 0 m - 220° 220° 4 kt METAR ETWM 020120Z AUTO 22004KT //// // ////// 11/10 Q1012 ///
02:20
L
11 °C 0 m - 200° 200° 4 kt METAR ETWM 020020Z AUTO 20004KT //// // ////// 11/10 Q1011 ///
01:20
L
11 °C 0 m - 220° 220° 4 kt METAR ETWM 012320Z AUTO 22004KT //// // ////// 11/10 Q1011 ///
00:20
L
11 °C 0 m - Var Var 3 kt METAR ETWM 012220Z AUTO VRB03KT //// // ////// 11/09 Q1010 ///

1 oktober 2022

Tijd Code Weer Temp. Zicht Plafond Wind METAR/SPECI
23:20
L
11 °C 0 m - 220° 220° 5 kt METAR ETWM 012120Z AUTO 22005KT //// // ////// 11/10 Q1010 ///
22:20
L
11 °C 0 m - 220° 220° 5 kt METAR ETWM 012020Z AUTO 22005KT //// // ////// 11/10 Q1010 ///
21:20
L
12 °C 0 m - 230° 230° 4 kt METAR ETWM 011920Z AUTO 23004KT //// // ////// 12/10 Q1009 ///
20:20
L
12 °C 0 m - 230° 230° 4 kt METAR ETWM 011820Z AUTO 23004KT //// // ////// 12/10 Q1008 ///
19:20
L
13 °C 0 m - 240° 240° 4 kt METAR ETWM 011720Z AUTO 24004KT //// // ////// 13/11 Q1007 ///
18:20
L
14 °C 0 m - 250° 250° 6 kt METAR ETWM 011620Z AUTO 25006KT //// // ////// 14/11 Q1006 ///
17:20
L
14 °C 0 m - 260° 260° 5 kt METAR ETWM 011520Z AUTO 26005KT //// // ////// 14/11 Q1005 ///
16:20
L
14 °C 0 m - 250° 250° 7 kt METAR ETWM 011420Z AUTO 25007KT //// // ////// 14/12 Q1004 ///
15:20
L
15 °C 0 m - 270° 270° 6 - 18 kt METAR ETWM 011320Z AUTO 27006G18KT //// // ////// 15/13 Q1004 ///
14:20
L
13 °C 0 m - 260° 260° 5 kt METAR ETWM 011220Z AUTO 26005KT //// // ////// 13/12 Q1002 ///
13:20
L
16 °C 0 m - 210° 210° 7 kt METAR ETWM 011120Z AUTO 21007KT //// // ////// 16/12 Q1001 ///
12:20
L
16 °C 0 m - 240° 240° 10 kt METAR ETWM 011020Z AUTO 24010KT //// // ////// 16/12 Q1001 ///
11:20
L
14 °C 0 m - 240° 240° 7 kt METAR ETWM 010920Z AUTO 24007KT //// // ////// 14/12 Q1000 ///
10:20
L
13 °C 0 m - 230° 230° 7 kt METAR ETWM 010820Z AUTO 23007KT //// // ////// 13/12 Q1000 ///
09:20
L
12 °C 0 m - 210° 210° 7 kt METAR ETWM 010720Z AUTO 21007KT //// // ////// 12/11 Q0999 ///
08:20
L
11 °C 0 m - 220° 220° 8 kt METAR ETWM 010620Z AUTO 22008KT //// // ////// 11/10 Q0999 ///
07:20
L
11 °C 0 m - 180° 180° 9 kt METAR ETWM 010520Z AUTO 18009KT //// // ////// 11/10 Q0998 ///
06:20
L
10 °C 0 m - 180° 180° 10 - 23 kt METAR ETWM 010420Z AUTO 18010G23KT //// // ////// 10/09 Q0999 ///
05:20
L
10 °C 0 m - 160° 160° 10 kt METAR ETWM 010320Z AUTO 16010KT //// // ////// 10/09 Q0999 ///
04:20
L
10 °C 0 m - 160° 160° 10 - 23 kt METAR ETWM 010220Z AUTO 16010G23KT //// // ////// 10/09 Q1000 ///
03:20
L
11 °C 0 m - 170° 170° 8 kt METAR ETWM 010120Z AUTO 17008KT //// // ////// 11/09 Q1002 ///
02:20
L
13 °C 0 m - 190° 190° 7 kt METAR ETWM 010020Z AUTO 19007KT //// // ////// 13/07 Q1004 ///
01:20
L
13 °C 0 m - 180° 180° 8 kt METAR ETWM 302320Z AUTO 18008KT //// // ////// 13/07 Q1004 ///
00:20
L
13 °C 0 m - 180° 180° 8 kt METAR ETWM 302220Z AUTO 18008KT //// // ////// 13/07 Q1005 ///

30 september 2022

Tijd Code Weer Temp. Zicht Plafond Wind METAR/SPECI
23:20
L
13 °C 0 m - 180° 180° 7 kt METAR ETWM 302120Z AUTO 18007KT //// // ////// 13/07 Q1005 ///
22:20
L
12 °C 0 m - 180° 180° 7 kt METAR ETWM 302020Z AUTO 18007KT //// // ////// 12/07 Q1006 ///
21:20
L
13 °C 0 m - 180° 180° 6 kt METAR ETWM 301920Z AUTO 18006KT //// // ////// 13/07 Q1007 ///
20:20
L
13 °C 0 m - 170° 170° 5 kt METAR ETWM 301820Z AUTO 17005KT //// // ////// 13/07 Q1007 ///
19:20
L
13 °C 0 m - 180° 180° 5 kt METAR ETWM 301720Z AUTO 18005KT //// // ////// 13/07 Q1007 ///
Oudere gegevens

Met cookies volgen wij en derde partijen jouw internetgedrag binnen onze site. Als je verdergaat gaan we ervan uit dat je dit goedvindt. Meer info